sensor_id;sensor_type;location;lat;lon;timestamp;P1;durP1;ratioP1;P2;durP2;ratioP2
24216;SDS011;12356;49.386;8.688;2022-08-19T00:01:40;14.87;;;12.77;;
24216;SDS011;12356;49.386;8.688;2022-08-19T00:04:14;15.30;;;13.15;;
24216;SDS011;12356;49.386;8.688;2022-08-19T00:06:46;15.65;;;13.52;;
24216;SDS011;12356;49.386;8.688;2022-08-19T00:09:19;18.60;;;13.90;;
24216;SDS011;12356;49.386;8.688;2022-08-19T00:11:51;16.67;;;14.55;;
24216;SDS011;12356;49.386;8.688;2022-08-19T00:14:23;17.88;;;14.43;;
24216;SDS011;12356;49.386;8.688;2022-08-19T00:16:55;17.52;;;14.10;;
24216;SDS011;12356;49.386;8.688;2022-08-19T00:19:26;16.40;;;13.95;;
24216;SDS011;12356;49.386;8.688;2022-08-19T00:21:57;15.77;;;14.05;;
24216;SDS011;12356;49.386;8.688;2022-08-19T00:24:28;16.10;;;13.45;;
24216;SDS011;12356;49.386;8.688;2022-08-19T00:26:59;15.80;;;14.00;;
24216;SDS011;12356;49.386;8.688;2022-08-19T00:32:02;16.20;;;14.23;;
24216;SDS011;12356;49.386;8.688;2022-08-19T00:34:32;19.40;;;14.88;;
24216;SDS011;12356;49.386;8.688;2022-08-19T00:37:03;17.42;;;14.68;;
24216;SDS011;12356;49.386;8.688;2022-08-19T00:39:34;16.40;;;14.05;;
24216;SDS011;12356;49.386;8.688;2022-08-19T00:42:05;16.83;;;13.85;;
24216;SDS011;12356;49.386;8.688;2022-08-19T00:44:36;16.20;;;14.15;;
24216;SDS011;12356;49.386;8.688;2022-08-19T00:47:08;16.05;;;14.35;;
24216;SDS011;12356;49.386;8.688;2022-08-19T00:49:47;19.40;;;14.25;;
24216;SDS011;12356;49.386;8.688;2022-08-19T00:52:25;19.23;;;14.90;;
24216;SDS011;12356;49.386;8.688;2022-08-19T00:54:59;17.33;;;14.48;;
24216;SDS011;12356;49.386;8.688;2022-08-19T00:57:34;19.55;;;14.65;;
24216;SDS011;12356;49.386;8.688;2022-08-19T01:00:09;16.33;;;13.93;;
24216;SDS011;12356;49.386;8.688;2022-08-19T01:02:45;16.60;;;13.77;;
24216;SDS011;12356;49.386;8.688;2022-08-19T01:05:18;17.17;;;14.45;;
24216;SDS011;12356;49.386;8.688;2022-08-19T01:07:53;17.05;;;14.32;;
24216;SDS011;12356;49.386;8.688;2022-08-19T01:10:25;18.67;;;14.85;;
24216;SDS011;12356;49.386;8.688;2022-08-19T01:12:59;17.05;;;14.52;;
24216;SDS011;12356;49.386;8.688;2022-08-19T01:15:32;18.58;;;14.63;;
24216;SDS011;12356;49.386;8.688;2022-08-19T01:18:06;21.10;;;14.32;;
24216;SDS011;12356;49.386;8.688;2022-08-19T01:20:39;16.55;;;13.98;;
24216;SDS011;12356;49.386;8.688;2022-08-19T01:23:11;15.88;;;14.13;;
24216;SDS011;12356;49.386;8.688;2022-08-19T01:25:50;16.63;;;14.43;;
24216;SDS011;12356;49.386;8.688;2022-08-19T01:28:24;21.42;;;15.05;;
24216;SDS011;12356;49.386;8.688;2022-08-19T01:30:57;17.95;;;14.60;;
24216;SDS011;12356;49.386;8.688;2022-08-19T01:33:27;17.55;;;14.23;;
24216;SDS011;12356;49.386;8.688;2022-08-19T01:36:08;16.52;;;14.20;;
24216;SDS011;12356;49.386;8.688;2022-08-19T01:38:43;19.05;;;15.55;;
24216;SDS011;12356;49.386;8.688;2022-08-19T01:41:13;20.42;;;15.15;;
24216;SDS011;12356;49.386;8.688;2022-08-19T01:43:45;17.58;;;14.65;;
24216;SDS011;12356;49.386;8.688;2022-08-19T01:46:16;18.52;;;15.48;;
24216;SDS011;12356;49.386;8.688;2022-08-19T01:48:47;17.07;;;14.70;;
24216;SDS011;12356;49.386;8.688;2022-08-19T01:51:17;17.52;;;15.15;;
24216;SDS011;12356;49.386;8.688;2022-08-19T01:53:49;19.25;;;15.32;;
24216;SDS011;12356;49.386;8.688;2022-08-19T01:56:21;19.48;;;14.90;;
24216;SDS011;12356;49.386;8.688;2022-08-19T01:58:56;17.10;;;14.75;;
24216;SDS011;12356;49.386;8.688;2022-08-19T02:01:30;17.42;;;14.90;;
24216;SDS011;12356;49.386;8.688;2022-08-19T02:04:04;18.30;;;15.13;;
24216;SDS011;12356;49.386;8.688;2022-08-19T02:06:35;16.45;;;14.68;;
24216;SDS011;12356;49.386;8.688;2022-08-19T02:09:06;17.02;;;14.63;;
24216;SDS011;12356;49.386;8.688;2022-08-19T02:11:38;19.58;;;15.60;;
24216;SDS011;12356;49.386;8.688;2022-08-19T02:14:09;19.38;;;15.45;;
24216;SDS011;12356;49.386;8.688;2022-08-19T02:16:39;18.27;;;15.23;;
24216;SDS011;12356;49.386;8.688;2022-08-19T02:19:10;18.67;;;14.85;;
24216;SDS011;12356;49.386;8.688;2022-08-19T02:21:41;19.25;;;15.65;;
24216;SDS011;12356;49.386;8.688;2022-08-19T02:24:13;18.52;;;14.93;;
24216;SDS011;12356;49.386;8.688;2022-08-19T02:26:43;20.35;;;14.90;;
24216;SDS011;12356;49.386;8.688;2022-08-19T02:29:14;19.30;;;15.65;;
24216;SDS011;12356;49.386;8.688;2022-08-19T02:31:45;21.08;;;15.95;;
24216;SDS011;12356;49.386;8.688;2022-08-19T02:34:16;16.42;;;14.63;;
24216;SDS011;12356;49.386;8.688;2022-08-19T02:36:47;17.23;;;15.20;;
24216;SDS011;12356;49.386;8.688;2022-08-19T02:39:17;21.10;;;15.70;;
24216;SDS011;12356;49.386;8.688;2022-08-19T02:41:48;19.27;;;15.27;;
24216;SDS011;12356;49.386;8.688;2022-08-19T02:44:20;18.77;;;14.88;;
24216;SDS011;12356;49.386;8.688;2022-08-19T02:46:51;18.02;;;14.80;;
24216;SDS011;12356;49.386;8.688;2022-08-19T02:49:21;17.15;;;14.55;;
24216;SDS011;12356;49.386;8.688;2022-08-19T02:51:52;18.75;;;15.45;;
24216;SDS011;12356;49.386;8.688;2022-08-19T02:54:24;18.92;;;15.60;;
24216;SDS011;12356;49.386;8.688;2022-08-19T02:56:55;20.25;;;15.30;;
24216;SDS011;12356;49.386;8.688;2022-08-19T02:59:26;18.40;;;14.95;;
24216;SDS011;12356;49.386;8.688;2022-08-19T03:02:00;17.95;;;15.07;;
24216;SDS011;12356;49.386;8.688;2022-08-19T03:04:31;17.98;;;15.15;;
24216;SDS011;12356;49.386;8.688;2022-08-19T03:07:02;17.42;;;14.73;;
24216;SDS011;12356;49.386;8.688;2022-08-19T03:09:32;16.23;;;14.30;;
24216;SDS011;12356;49.386;8.688;2022-08-19T03:12:03;18.77;;;15.05;;
24216;SDS011;12356;49.386;8.688;2022-08-19T03:14:35;19.67;;;15.55;;
24216;SDS011;12356;49.386;8.688;2022-08-19T03:17:06;18.42;;;15.20;;
24216;SDS011;12356;49.386;8.688;2022-08-19T03:19:37;20.00;;;15.25;;
24216;SDS011;12356;49.386;8.688;2022-08-19T03:22:08;20.88;;;16.13;;
24216;SDS011;12356;49.386;8.688;2022-08-19T03:24:39;17.30;;;15.15;;
24216;SDS011;12356;49.386;8.688;2022-08-19T03:27:10;19.30;;;15.45;;
24216;SDS011;12356;49.386;8.688;2022-08-19T03:29:41;20.95;;;15.73;;
24216;SDS011;12356;49.386;8.688;2022-08-19T03:32:11;21.35;;;15.80;;
24216;SDS011;12356;49.386;8.688;2022-08-19T03:34:42;19.90;;;15.60;;
24216;SDS011;12356;49.386;8.688;2022-08-19T03:37:13;19.30;;;15.65;;
24216;SDS011;12356;49.386;8.688;2022-08-19T03:39:43;20.60;;;16.17;;
24216;SDS011;12356;49.386;8.688;2022-08-19T03:42:14;19.58;;;15.43;;
24216;SDS011;12356;49.386;8.688;2022-08-19T03:47:17;20.10;;;14.80;;
24216;SDS011;12356;49.386;8.688;2022-08-19T03:49:48;20.35;;;16.75;;
24216;SDS011;12356;49.386;8.688;2022-08-19T03:52:19;21.23;;;16.00;;
24216;SDS011;12356;49.386;8.688;2022-08-19T03:54:49;18.73;;;15.57;;
24216;SDS011;12356;49.386;8.688;2022-08-19T03:57:20;19.50;;;15.38;;
24216;SDS011;12356;49.386;8.688;2022-08-19T03:59:51;23.17;;;15.85;;
24216;SDS011;12356;49.386;8.688;2022-08-19T04:02:21;20.65;;;15.43;;
24216;SDS011;12356;49.386;8.688;2022-08-19T04:04:53;20.15;;;15.55;;
24216;SDS011;12356;49.386;8.688;2022-08-19T04:07:26;17.58;;;15.55;;
24216;SDS011;12356;49.386;8.688;2022-08-19T04:09:57;19.15;;;16.00;;
24216;SDS011;12356;49.386;8.688;2022-08-19T04:12:29;20.77;;;16.65;;
24216;SDS011;12356;49.386;8.688;2022-08-19T04:14:59;20.35;;;15.35;;
24216;SDS011;12356;49.386;8.688;2022-08-19T04:17:30;19.70;;;16.35;;
24216;SDS011;12356;49.386;8.688;2022-08-19T04:20:01;20.20;;;16.35;;
24216;SDS011;12356;49.386;8.688;2022-08-19T04:22:32;20.20;;;16.73;;
24216;SDS011;12356;49.386;8.688;2022-08-19T04:25:03;23.75;;;16.95;;
24216;SDS011;12356;49.386;8.688;2022-08-19T04:27:34;21.30;;;16.85;;
24216;SDS011;12356;49.386;8.688;2022-08-19T04:30:05;19.45;;;15.60;;
24216;SDS011;12356;49.386;8.688;2022-08-19T04:32:36;20.85;;;16.63;;
24216;SDS011;12356;49.386;8.688;2022-08-19T04:35:07;25.02;;;16.73;;
24216;SDS011;12356;49.386;8.688;2022-08-19T04:37:38;19.67;;;16.45;;
24216;SDS011;12356;49.386;8.688;2022-08-19T04:40:08;24.67;;;17.38;;
24216;SDS011;12356;49.386;8.688;2022-08-19T04:42:58;22.08;;;17.23;;
24216;SDS011;12356;49.386;8.688;2022-08-19T04:45:28;26.55;;;17.23;;
24216;SDS011;12356;49.386;8.688;2022-08-19T04:47:59;21.27;;;17.27;;
24216;SDS011;12356;49.386;8.688;2022-08-19T04:50:31;22.92;;;17.38;;
24216;SDS011;12356;49.386;8.688;2022-08-19T04:53:02;20.77;;;17.35;;
24216;SDS011;12356;49.386;8.688;2022-08-19T04:55:37;22.38;;;17.02;;
24216;SDS011;12356;49.386;8.688;2022-08-19T04:58:09;23.85;;;17.63;;
24216;SDS011;12356;49.386;8.688;2022-08-19T05:00:39;21.40;;;17.67;;
24216;SDS011;12356;49.386;8.688;2022-08-19T05:03:10;24.08;;;17.40;;
24216;SDS011;12356;49.386;8.688;2022-08-19T05:05:41;24.25;;;18.38;;
24216;SDS011;12356;49.386;8.688;2022-08-19T05:08:13;26.83;;;19.20;;
24216;SDS011;12356;49.386;8.688;2022-08-19T05:10:50;25.85;;;18.85;;
24216;SDS011;12356;49.386;8.688;2022-08-19T05:13:21;24.23;;;18.52;;
24216;SDS011;12356;49.386;8.688;2022-08-19T05:15:55;23.35;;;17.63;;
24216;SDS011;12356;49.386;8.688;2022-08-19T05:18:27;24.05;;;17.75;;
24216;SDS011;12356;49.386;8.688;2022-08-19T05:21:17;23.55;;;18.45;;
24216;SDS011;12356;49.386;8.688;2022-08-19T05:24:07;23.08;;;17.92;;
24216;SDS011;12356;49.386;8.688;2022-08-19T05:26:39;23.42;;;17.85;;
